createdAt,value
2019-03-20T00:01:25.503Z,99.90
2019-03-20T00:03:55.868Z,99.90
2019-03-20T00:06:26.234Z,99.90
2019-03-20T00:08:56.568Z,99.90
2019-03-20T00:11:26.931Z,99.90
2019-03-20T00:13:57.350Z,99.90
2019-03-20T00:16:27.698Z,99.90
2019-03-20T00:18:58.046Z,99.90
2019-03-20T00:21:28.403Z,99.90
2019-03-20T00:23:58.759Z,99.90
2019-03-20T00:26:29.129Z,99.90
2019-03-20T00:28:59.543Z,99.90
2019-03-20T00:31:29.908Z,99.90
2019-03-20T00:34:00.301Z,99.90
2019-03-20T00:36:32.546Z,99.90
2019-03-20T00:39:02.896Z,99.90
2019-03-20T00:41:33.223Z,99.90
2019-03-20T00:44:03.592Z,99.90
2019-03-20T00:46:33.959Z,99.90
2019-03-20T00:49:04.320Z,99.90
2019-03-20T00:51:34.651Z,99.90
2019-03-20T00:54:05.019Z,99.90
2019-03-20T00:56:35.414Z,99.90
2019-03-20T00:59:05.754Z,99.90
2019-03-20T01:01:36.109Z,99.90
2019-03-20T01:04:06.466Z,99.90
2019-03-20T01:06:36.870Z,99.90
2019-03-20T01:09:07.901Z,99.90
2019-03-20T01:11:38.240Z,99.90
2019-03-20T01:14:08.592Z,99.90
2019-03-20T01:16:38.947Z,99.90
2019-03-20T01:19:09.311Z,99.90
2019-03-20T01:21:39.651Z,99.90
2019-03-20T01:24:10.003Z,99.90
2019-03-20T01:26:40.379Z,99.90
2019-03-20T01:29:11.641Z,99.90
2019-03-20T01:31:42.022Z,99.90
2019-03-20T01:34:12.370Z,99.90
2019-03-20T01:36:42.719Z,99.90
2019-03-20T01:39:13.094Z,99.90
2019-03-20T01:41:43.459Z,99.90
2019-03-20T01:44:13.798Z,99.90
2019-03-20T01:46:44.117Z,99.90
2019-03-20T01:49:14.467Z,99.90
2019-03-20T01:51:44.906Z,99.90
2019-03-20T01:54:15.178Z,99.90
2019-03-20T01:56:45.535Z,99.90
2019-03-20T01:59:15.879Z,99.90
2019-03-20T02:01:46.236Z,99.90
2019-03-20T02:04:16.572Z,99.90
2019-03-20T02:06:46.915Z,99.90
2019-03-20T02:09:17.262Z,99.90
2019-03-20T02:11:47.538Z,99.90
2019-03-20T02:14:17.883Z,99.90
2019-03-20T02:16:48.220Z,99.90
2019-03-20T02:19:18.581Z,99.90
2019-03-20T02:21:48.942Z,99.90
2019-03-20T02:24:19.313Z,99.90
2019-03-20T02:26:49.683Z,99.90
2019-03-20T02:29:20.023Z,99.90
2019-03-20T02:31:50.406Z,99.90
2019-03-20T02:34:21.043Z,99.90
2019-03-20T02:36:51.435Z,99.90
2019-03-20T02:39:21.732Z,99.90
2019-03-20T02:41:52.129Z,99.90
2019-03-20T02:44:22.465Z,99.90
2019-03-20T02:46:52.820Z,99.90
2019-03-20T02:49:23.181Z,99.90
2019-03-20T02:51:53.514Z,99.90
2019-03-20T02:54:23.858Z,99.90
2019-03-20T02:56:54.197Z,99.90
2019-03-20T02:59:24.552Z,99.90
2019-03-20T03:01:54.892Z,99.90
2019-03-20T03:04:25.249Z,99.90
2019-03-20T03:06:55.591Z,99.90
2019-03-20T03:09:25.876Z,99.90
2019-03-20T03:11:56.214Z,99.90
2019-03-20T03:14:26.563Z,99.90
2019-03-20T03:16:56.924Z,99.90
2019-03-20T03:19:27.271Z,99.90
2019-03-20T03:21:57.644Z,99.90
2019-03-20T03:24:27.972Z,99.90
2019-03-20T03:26:58.339Z,99.90
2019-03-20T03:29:28.684Z,99.90
2019-03-20T03:31:59.044Z,99.90
2019-03-20T03:34:29.408Z,99.90
2019-03-20T03:36:59.742Z,99.90
2019-03-20T03:39:30.104Z,99.90
2019-03-20T03:42:00.453Z,99.90
2019-03-20T03:44:30.794Z,99.90
2019-03-20T03:47:01.055Z,99.90
2019-03-20T03:49:31.335Z,99.90
2019-03-20T03:52:01.710Z,99.90
2019-03-20T03:54:32.035Z,99.90
2019-03-20T03:57:02.404Z,99.90
2019-03-20T03:59:32.764Z,99.90
2019-03-20T04:02:03.415Z,99.90
2019-03-20T04:04:33.718Z,99.90
2019-03-20T04:07:04.051Z,99.90
2019-03-20T04:09:34.417Z,99.90
2019-03-20T04:12:04.830Z,99.90
2019-03-20T04:14:35.165Z,99.90
2019-03-20T04:17:21.525Z,99.90
2019-03-20T04:19:51.898Z,99.90
2019-03-20T04:22:22.265Z,99.90
2019-03-20T04:24:52.700Z,99.90
2019-03-20T04:27:23.364Z,99.90
2019-03-20T04:29:53.693Z,99.90
2019-03-20T04:32:24.023Z,99.90
2019-03-20T04:34:54.371Z,99.90
2019-03-20T04:37:24.739Z,99.90
2019-03-20T04:39:55.131Z,99.90
2019-03-20T04:42:25.483Z,99.90
2019-03-20T04:44:55.834Z,99.90
2019-03-20T04:47:26.250Z,99.90
2019-03-20T04:49:56.575Z,99.90
2019-03-20T04:52:26.933Z,99.90
2019-03-20T04:54:57.509Z,99.90
2019-03-20T04:57:27.843Z,99.90
2019-03-20T04:59:58.196Z,99.90
2019-03-20T05:02:28.527Z,99.90
2019-03-20T05:04:58.874Z,99.90
2019-03-20T05:07:29.208Z,99.90
2019-03-20T05:09:59.560Z,99.90
2019-03-20T05:12:29.936Z,99.90
2019-03-20T05:15:00.350Z,99.90
2019-03-20T05:17:30.695Z,99.90
2019-03-20T05:20:01.045Z,99.90
2019-03-20T05:22:31.283Z,99.90
2019-03-20T05:25:01.562Z,99.90
2019-03-20T05:27:31.908Z,99.90
2019-03-20T05:30:02.327Z,99.90
2019-03-20T05:32:32.703Z,99.90
2019-03-20T05:35:03.037Z,99.90
2019-03-20T05:37:33.379Z,99.90
2019-03-20T05:40:03.803Z,99.90
2019-03-20T05:42:34.149Z,99.90
2019-03-20T05:45:04.692Z,99.90
2019-03-20T05:47:35.039Z,99.90
2019-03-20T05:50:05.830Z,99.90
2019-03-20T05:52:36.121Z,99.90
2019-03-20T05:55:06.477Z,99.90
2019-03-20T05:57:36.788Z,99.90
2019-03-20T06:00:07.876Z,99.90
2019-03-20T06:02:38.123Z,99.90
2019-03-20T06:05:08.595Z,99.90
2019-03-20T06:07:38.852Z,99.90
2019-03-20T06:10:11.059Z,99.90
2019-03-20T06:12:41.755Z,99.90
2019-03-20T06:15:12.421Z,99.90
2019-03-20T06:17:42.770Z,99.90
2019-03-20T06:20:13.132Z,99.90
2019-03-20T06:22:43.472Z,99.90
2019-03-20T06:25:13.895Z,99.90
2019-03-20T06:27:44.282Z,99.90
2019-03-20T06:30:16.351Z,99.90
2019-03-20T06:32:46.684Z,99.90
2019-03-20T06:35:17.027Z,99.90
2019-03-20T06:37:47.385Z,99.90
2019-03-20T06:40:17.735Z,99.90
2019-03-20T06:42:48.158Z,99.90
2019-03-20T06:45:18.534Z,99.90
2019-03-20T06:47:48.991Z,99.90
2019-03-20T06:50:19.339Z,99.90
2019-03-20T06:52:49.677Z,99.90
2019-03-20T06:55:20.039Z,99.90
2019-03-20T06:57:50.375Z,99.90
2019-03-20T07:00:53.802Z,99.90
2019-03-20T07:03:39.375Z,99.90
2019-03-20T07:06:32.026Z,99.90
2019-03-20T07:09:34.439Z,99.90
2019-03-20T07:12:04.801Z,99.90
2019-03-20T07:14:35.127Z,99.90
2019-03-20T07:17:05.474Z,99.90
2019-03-20T07:19:35.861Z,99.90
2019-03-20T07:22:06.203Z,99.90
2019-03-20T07:24:36.482Z,99.90
2019-03-20T07:27:06.751Z,99.90
2019-03-20T07:29:37.155Z,99.90
2019-03-20T07:32:07.451Z,99.90
2019-03-20T07:34:37.795Z,99.90
2019-03-20T07:37:08.143Z,99.90
2019-03-20T07:39:38.478Z,97.20
2019-03-20T07:42:08.828Z,95.70
2019-03-20T07:44:39.169Z,98.10
2019-03-20T07:47:09.510Z,98.00
2019-03-20T07:49:39.843Z,95.10
2019-03-20T07:52:10.218Z,93.90
2019-03-20T07:54:40.518Z,91.60
2019-03-20T07:57:10.811Z,93.70
2019-03-20T07:59:41.186Z,93.80
2019-03-20T08:02:11.538Z,93.00
2019-03-20T08:04:41.897Z,94.60
2019-03-20T08:07:12.234Z,94.50
2019-03-20T08:09:42.506Z,94.20
2019-03-20T08:12:12.842Z,94.60
2019-03-20T08:14:43.244Z,93.20
2019-03-20T08:17:13.523Z,94.70
2019-03-20T08:19:43.815Z,94.00
2019-03-20T08:22:14.202Z,93.70
2019-03-20T08:24:44.531Z,94.50
2019-03-20T08:27:14.867Z,94.10
2019-03-20T08:29:47.408Z,93.00
2019-03-20T08:32:17.817Z,92.50
2019-03-20T08:34:48.175Z,92.00
2019-03-20T08:37:18.566Z,90.80
2019-03-20T08:39:48.982Z,90.70
2019-03-20T08:45:07.775Z,88.90
2019-03-20T08:48:24.886Z,91.20
2019-03-20T08:50:15.272Z,88.80
2019-03-20T08:52:45.490Z,82.60
2019-03-20T08:55:17.028Z,79.40
2019-03-20T08:57:50.563Z,78.80
2019-03-20T09:00:21.216Z,77.40
2019-03-20T09:02:51.697Z,73.10
2019-03-20T09:05:22.019Z,64.50
2019-03-20T09:07:52.362Z,65.10
2019-03-20T09:10:22.760Z,61.80
2019-03-20T09:12:53.168Z,59.70
2019-03-20T09:15:23.498Z,62.60
2019-03-20T09:17:53.851Z,60.30
2019-03-20T09:20:24.224Z,58.00
2019-03-20T09:22:54.551Z,57.50
2019-03-20T09:25:24.841Z,54.80
2019-03-20T09:27:55.226Z,55.30
2019-03-20T09:30:25.991Z,56.70
2019-03-20T09:32:56.523Z,55.10
2019-03-20T09:35:26.851Z,54.20
2019-03-20T09:37:57.191Z,52.10
2019-03-20T09:40:27.536Z,52.30
2019-03-20T09:42:57.910Z,52.90
2019-03-20T09:45:28.279Z,52.70
2019-03-20T09:47:58.610Z,54.00
2019-03-20T09:50:29.186Z,56.20
2019-03-20T09:52:59.591Z,54.40
2019-03-20T09:55:30.346Z,53.20
2019-03-20T09:58:10.950Z,55.00
2019-03-20T10:00:32.627Z,50.60
2019-03-20T10:03:02.867Z,48.50
2019-03-20T10:05:33.249Z,48.20
2019-03-20T10:08:03.642Z,48.10
2019-03-20T10:10:34.055Z,48.00
2019-03-20T10:13:04.422Z,46.90
2019-03-20T10:15:34.770Z,47.90
2019-03-20T10:18:05.100Z,46.70
2019-03-20T10:20:35.473Z,49.60
2019-03-20T10:23:05.799Z,45.40
2019-03-20T10:25:44.198Z,44.80
2019-03-20T10:28:08.379Z,44.20
2019-03-20T10:30:38.728Z,43.80
2019-03-20T10:33:09.069Z,44.30
2019-03-20T10:35:49.647Z,45.10
2019-03-20T10:38:11.316Z,43.00
2019-03-20T10:40:41.605Z,46.10
2019-03-20T10:43:11.950Z,44.90
2019-03-20T10:45:42.207Z,45.00
2019-03-20T10:48:12.487Z,44.90
2019-03-20T10:50:42.848Z,47.80
2019-03-20T10:53:13.195Z,47.00
2019-03-20T10:55:43.651Z,45.50
2019-03-20T10:58:14.042Z,43.70
2019-03-20T11:00:44.374Z,45.60
2019-03-20T11:03:14.651Z,44.40
2019-03-20T11:05:44.983Z,43.70
2019-03-20T11:08:15.465Z,46.10
2019-03-20T11:10:45.942Z,45.90
2019-03-20T11:13:16.615Z,47.40
2019-03-20T11:15:46.937Z,48.30
2019-03-20T11:18:17.323Z,47.90
2019-03-20T11:20:47.815Z,45.10
2019-03-20T11:23:18.198Z,43.00
2019-03-20T11:25:48.551Z,43.20
2019-03-20T11:28:18.895Z,45.30
2019-03-20T11:30:49.242Z,44.70
2019-03-20T11:33:19.611Z,43.00
2019-03-20T11:35:49.942Z,43.30
2019-03-20T11:38:20.295Z,43.50
2019-03-20T11:40:50.623Z,46.30
2019-03-20T11:43:21.007Z,47.40
2019-03-20T11:45:51.347Z,46.00
2019-03-20T11:48:21.694Z,43.90
2019-03-20T11:50:52.039Z,44.20
2019-03-20T11:53:22.372Z,44.40
2019-03-20T11:55:52.743Z,44.00
2019-03-20T11:58:27.219Z,44.40
2019-03-20T12:01:00.279Z,43.90
2019-03-20T12:03:30.635Z,44.60
2019-03-20T12:06:01.031Z,43.60
2019-03-20T12:08:31.404Z,45.80
2019-03-20T12:11:01.789Z,43.30
2019-03-20T12:13:32.138Z,44.60
2019-03-20T12:16:02.555Z,42.00
2019-03-20T12:18:32.939Z,44.10
2019-03-20T12:21:03.469Z,42.40
2019-03-20T12:23:34.179Z,43.80
2019-03-20T12:26:04.513Z,44.60
2019-03-20T12:28:34.883Z,45.30
2019-03-20T12:31:06.699Z,41.70
2019-03-20T12:33:37.095Z,44.10
2019-03-20T12:36:07.354Z,45.60
2019-03-20T12:38:37.722Z,43.50
2019-03-20T12:41:08.068Z,47.30
2019-03-20T12:43:38.405Z,45.40
2019-03-20T12:46:08.749Z,43.50
2019-03-20T12:48:39.079Z,43.60
2019-03-20T12:51:09.422Z,43.60
2019-03-20T12:53:39.773Z,45.40
2019-03-20T12:56:10.133Z,44.20
2019-03-20T12:58:40.483Z,44.40
2019-03-20T13:01:10.847Z,44.40
2019-03-20T13:03:41.216Z,46.30
2019-03-20T13:06:11.555Z,46.60
2019-03-20T13:08:41.807Z,45.70
2019-03-20T13:11:12.063Z,46.00
2019-03-20T13:13:42.445Z,46.40
2019-03-20T13:16:12.778Z,46.40
2019-03-20T13:18:43.130Z,45.90
2019-03-20T13:21:13.460Z,45.10
2019-03-20T13:23:43.802Z,44.50
2019-03-20T13:26:14.223Z,45.60
2019-03-20T13:28:44.764Z,46.90
2019-03-20T13:31:17.753Z,44.50
2019-03-20T13:33:49.156Z,46.30
2019-03-20T13:36:19.755Z,46.20
2019-03-20T13:38:50.089Z,46.10
2019-03-20T13:41:20.448Z,46.20
2019-03-20T13:43:50.778Z,45.90
2019-03-20T13:46:21.154Z,46.80
2019-03-20T13:48:51.417Z,46.10
2019-03-20T13:51:21.746Z,44.80
2019-03-20T13:53:52.111Z,45.40
2019-03-20T13:56:22.460Z,46.10
2019-03-20T13:58:52.951Z,46.20
2019-03-20T14:01:23.304Z,46.10
2019-03-20T14:03:53.664Z,45.80
2019-03-20T14:06:24.258Z,44.90
2019-03-20T14:08:54.590Z,45.90
2019-03-20T14:11:24.990Z,44.70
2019-03-20T14:13:55.462Z,44.80
2019-03-20T14:16:25.719Z,45.50
2019-03-20T14:18:56.059Z,46.80
2019-03-20T14:21:26.418Z,44.30
2019-03-20T14:23:56.755Z,44.60
2019-03-20T14:26:27.109Z,45.10
2019-03-20T14:28:57.443Z,44.60
2019-03-20T14:31:27.902Z,45.40
2019-03-20T14:33:58.263Z,46.10
2019-03-20T14:36:28.663Z,45.50
2019-03-20T14:38:58.984Z,45.80
2019-03-20T14:41:29.619Z,46.20
2019-03-20T14:44:00.190Z,45.80
2019-03-20T14:46:30.751Z,45.60
2019-03-20T14:49:01.098Z,44.90
2019-03-20T14:51:31.363Z,44.40
2019-03-20T14:54:01.719Z,45.60
2019-03-20T14:56:32.042Z,46.20
2019-03-20T14:59:05.191Z,45.70
2019-03-20T15:01:35.515Z,47.10
2019-03-20T15:04:05.834Z,47.40
2019-03-20T15:06:36.181Z,47.40
2019-03-20T15:09:08.748Z,46.70
2019-03-20T15:11:39.091Z,46.50
2019-03-20T15:14:09.426Z,47.00
2019-03-20T15:16:39.714Z,46.70
2019-03-20T15:19:09.995Z,47.10
2019-03-20T15:21:40.342Z,47.40
2019-03-20T15:24:10.734Z,47.30
2019-03-20T15:26:41.067Z,46.40
2019-03-20T15:29:11.406Z,46.90
2019-03-20T15:31:41.679Z,46.80
2019-03-20T15:34:12.026Z,47.30
2019-03-20T15:36:42.459Z,47.20
2019-03-20T15:39:12.818Z,48.40
2019-03-20T15:41:44.703Z,49.00
2019-03-20T15:44:15.046Z,48.80
2019-03-20T15:46:45.402Z,48.90
2019-03-20T15:49:15.765Z,49.60
2019-03-20T15:51:46.110Z,48.40
2019-03-20T15:54:16.438Z,47.70
2019-03-20T15:56:46.794Z,47.90
2019-03-20T15:59:17.125Z,48.80
2019-03-20T16:01:47.454Z,48.60
2019-03-20T16:04:17.797Z,48.30
2019-03-20T16:06:48.139Z,49.10
2019-03-20T16:09:18.479Z,49.70
2019-03-20T16:11:48.814Z,50.30
2019-03-20T16:14:19.154Z,50.00
2019-03-20T16:16:49.463Z,50.70
2019-03-20T16:19:19.907Z,50.70
2019-03-20T16:21:50.162Z,50.70
2019-03-20T16:24:20.528Z,51.10
2019-03-20T16:26:50.867Z,51.20
2019-03-20T16:29:21.198Z,51.50
2019-03-20T16:31:51.546Z,52.00
2019-03-20T16:34:21.819Z,52.10
2019-03-20T16:36:52.192Z,52.40
2019-03-20T16:39:22.539Z,52.80
2019-03-20T16:41:52.883Z,53.20
2019-03-20T16:44:23.190Z,53.90
2019-03-20T16:46:53.534Z,53.60
2019-03-20T16:49:26.372Z,53.40
2019-03-20T16:51:56.722Z,53.60
2019-03-20T16:54:27.043Z,53.50
2019-03-20T16:56:57.306Z,54.00
2019-03-20T16:59:27.727Z,54.80
2019-03-20T17:01:58.429Z,55.10
2019-03-20T17:04:28.887Z,55.40
2019-03-20T17:06:59.210Z,55.50
2019-03-20T17:09:29.631Z,55.90
2019-03-20T17:11:59.891Z,56.50
2019-03-20T17:14:30.345Z,57.00
2019-03-20T17:17:00.686Z,57.40
2019-03-20T17:19:31.155Z,58.30
2019-03-20T17:22:01.770Z,58.90
2019-03-20T17:24:33.364Z,59.40
2019-03-20T17:27:03.784Z,61.00
2019-03-20T17:29:34.082Z,62.40
2019-03-20T17:32:04.590Z,62.70
2019-03-20T17:34:35.250Z,68.20
2019-03-20T17:37:05.739Z,70.50
2019-03-20T17:39:36.135Z,71.50
2019-03-20T17:42:06.396Z,72.10
2019-03-20T17:44:36.923Z,71.80
2019-03-20T17:47:07.277Z,72.20
2019-03-20T17:49:37.608Z,74.30
2019-03-20T17:52:08.163Z,75.10
2019-03-20T17:54:38.593Z,77.10
2019-03-20T17:57:09.130Z,79.80
2019-03-20T17:59:39.708Z,82.40
2019-03-20T18:02:10.233Z,83.90
2019-03-20T18:04:40.734Z,85.30
2019-03-20T18:07:11.099Z,86.80
2019-03-20T18:09:41.584Z,88.80
2019-03-20T18:12:11.911Z,90.30
2019-03-20T18:14:42.290Z,91.20
2019-03-20T18:17:12.547Z,92.10
2019-03-20T18:19:42.992Z,92.80
2019-03-20T18:22:13.536Z,94.60
2019-03-20T18:24:44.047Z,94.10
2019-03-20T18:27:14.493Z,94.30
2019-03-20T18:29:44.834Z,94.10
2019-03-20T18:32:16.379Z,94.10
2019-03-20T18:34:46.770Z,94.00
2019-03-20T18:37:17.231Z,93.90
2019-03-20T18:39:47.558Z,93.50
2019-03-20T18:42:17.914Z,99.90
2019-03-20T18:44:48.276Z,97.00
2019-03-20T18:47:18.723Z,94.90
2019-03-20T18:49:49.161Z,94.00
2019-03-20T18:52:19.610Z,94.90
2019-03-20T18:54:49.976Z,96.00
2019-03-20T18:57:20.339Z,96.40
2019-03-20T18:59:50.730Z,96.80
2019-03-20T19:02:21.075Z,97.70
2019-03-20T19:04:51.412Z,98.20
2019-03-20T19:07:21.923Z,98.90
2019-03-20T19:09:52.534Z,99.90
2019-03-20T19:12:22.865Z,99.90
2019-03-20T19:14:53.249Z,99.90
2019-03-20T19:17:23.783Z,99.90
2019-03-20T19:19:54.250Z,99.80
2019-03-20T19:22:24.795Z,99.90
2019-03-20T19:24:55.143Z,99.90
2019-03-20T19:27:25.834Z,99.90
2019-03-20T19:29:56.284Z,99.90
2019-03-20T19:32:26.917Z,99.90
2019-03-20T19:34:57.661Z,99.90
2019-03-20T19:37:28.178Z,99.90
2019-03-20T19:39:58.476Z,99.90
2019-03-20T19:42:28.826Z,99.90
2019-03-20T19:44:59.266Z,99.90
2019-03-20T19:47:29.639Z,99.90
2019-03-20T19:49:59.939Z,99.90
2019-03-20T19:52:30.263Z,99.90
2019-03-20T19:55:00.899Z,99.90
2019-03-20T19:57:31.363Z,99.90
2019-03-20T20:00:01.720Z,99.90
2019-03-20T20:02:32.002Z,99.90
2019-03-20T20:05:02.999Z,99.90
2019-03-20T20:07:33.337Z,99.90
2019-03-20T20:10:03.971Z,99.90
2019-03-20T20:12:34.411Z,99.90
2019-03-20T20:15:05.252Z,99.90
2019-03-20T20:17:35.631Z,99.90
2019-03-20T20:20:07.463Z,99.90
2019-03-20T20:22:37.835Z,99.90
2019-03-20T20:25:08.368Z,99.90
2019-03-20T20:27:38.756Z,99.90
2019-03-20T20:30:12.409Z,99.90
2019-03-20T20:32:42.786Z,99.90
2019-03-20T20:35:13.587Z,99.90
2019-03-20T20:37:43.984Z,99.90
2019-03-20T20:40:15.811Z,99.90
2019-03-20T20:42:46.207Z,99.90
2019-03-20T20:45:16.632Z,99.90
2019-03-20T20:47:47.050Z,99.90
2019-03-20T20:50:18.763Z,99.90
2019-03-20T20:52:49.148Z,99.90
2019-03-20T20:55:19.486Z,99.90
2019-03-20T20:57:50.973Z,99.90
2019-03-20T21:00:22.372Z,99.90
2019-03-20T21:02:52.828Z,99.90
2019-03-20T21:05:23.460Z,99.90
2019-03-20T21:07:55.273Z,99.90
2019-03-20T21:10:25.555Z,99.90
2019-03-20T21:12:57.418Z,99.90
2019-03-20T21:15:45.561Z,99.90
2019-03-20T21:18:56.566Z,99.90
2019-03-20T21:21:55.384Z,99.90
2019-03-20T21:24:28.538Z,99.90
2019-03-20T21:27:46.070Z,99.90
2019-03-20T21:30:49.992Z,99.90
2019-03-20T21:33:52.579Z,99.90
2019-03-20T21:37:07.184Z,99.90
2019-03-20T21:39:38.123Z,99.90
2019-03-20T21:43:06.868Z,99.90
2019-03-20T21:46:08.720Z,99.90
2019-03-20T21:48:39.643Z,99.90
2019-03-20T21:51:19.722Z,99.90
2019-03-20T21:54:37.260Z,99.90
2019-03-20T21:57:48.782Z,99.90
2019-03-20T22:00:58.564Z,99.90
2019-03-20T22:03:29.392Z,99.90
2019-03-20T22:06:39.271Z,99.90
2019-03-20T22:09:41.946Z,99.90
2019-03-20T22:12:26.319Z,99.90
2019-03-20T22:15:11.202Z,99.90
2019-03-20T22:18:08.328Z,99.90
2019-03-20T22:21:04.098Z,99.90
2019-03-20T22:23:58.999Z,99.90
2019-03-20T22:27:22.147Z,99.90
2019-03-20T22:29:53.107Z,99.90
2019-03-20T22:33:19.184Z,99.90
2019-03-20T22:35:58.127Z,99.90
2019-03-20T22:39:24.138Z,99.90
2019-03-20T22:42:17.591Z,99.90
2019-03-20T22:45:19.967Z,99.90
2019-03-20T22:48:46.315Z,99.90
2019-03-20T22:51:46.801Z,99.90
2019-03-20T22:54:54.139Z,99.90
2019-03-20T22:57:33.793Z,99.90
2019-03-20T23:00:06.307Z,99.90
2019-03-20T23:02:51.969Z,99.90
2019-03-20T23:05:22.866Z,99.90
2019-03-20T23:07:53.800Z,99.90
2019-03-20T23:10:25.127Z,99.90
2019-03-20T23:12:56.073Z,99.90
2019-03-20T23:15:26.983Z,99.90
2019-03-20T23:17:57.890Z,99.90
2019-03-20T23:20:28.962Z,99.90
2019-03-20T23:22:59.866Z,99.90
2019-03-20T23:25:30.776Z,99.90
2019-03-20T23:28:01.668Z,99.90
2019-03-20T23:30:32.615Z,99.90
2019-03-20T23:33:03.535Z,99.90
2019-03-20T23:35:34.375Z,99.90
2019-03-20T23:38:05.281Z,99.90
2019-03-20T23:40:36.192Z,99.90
2019-03-20T23:43:07.643Z,99.90
2019-03-20T23:45:38.530Z,99.90
2019-03-20T23:48:51.010Z,99.90
2019-03-20T23:51:22.803Z,99.90
2019-03-20T23:53:55.015Z,99.90
2019-03-20T23:56:27.478Z,99.90
2019-03-20T23:58:58.479Z,99.90
